sensor_id;sensor_type;location;lat;lon;timestamp;P1;P2;P0
80692;PMS5003;70055;39.436;-77.514;2023-11-19T00:01:56;3;3;
80692;PMS5003;70055;39.436;-77.514;2023-11-19T00:04:24;3;3;
80692;PMS5003;70055;39.436;-77.514;2023-11-19T00:06:52;3;3;
80692;PMS5003;70055;39.436;-77.514;2023-11-19T00:09:20;5;5;
80692;PMS5003;70055;39.436;-77.514;2023-11-19T00:11:48;3;3;
80692;PMS5003;70055;39.436;-77.514;2023-11-19T00:14:16;5;5;
80692;PMS5003;70055;39.436;-77.514;2023-11-19T00:16:45;5;5;
80692;PMS5003;70055;39.436;-77.514;2023-11-19T00:19:13;3;3;
80692;PMS5003;70055;39.436;-77.514;2023-11-19T00:21:41;5;5;
80692;PMS5003;70055;39.436;-77.514;2023-11-19T00:24:10;6;5;
80692;PMS5003;70055;39.436;-77.514;2023-11-19T00:26:37;6;5;
80692;PMS5003;70055;39.436;-77.514;2023-11-19T00:29:05;5;5;
80692;PMS5003;70055;39.436;-77.514;2023-11-19T00:31:33;5;5;
80692;PMS5003;70055;39.436;-77.514;2023-11-19T00:34:01;7;5;
80692;PMS5003;70055;39.436;-77.514;2023-11-19T00:36:28;5;5;
80692;PMS5003;70055;39.436;-77.514;2023-11-19T00:38:57;5;5;
80692;PMS5003;70055;39.436;-77.514;2023-11-19T00:41:25;5;5;
80692;PMS5003;70055;39.436;-77.514;2023-11-19T00:43:53;3;3;
80692;PMS5003;70055;39.436;-77.514;2023-11-19T00:46:21;5;5;
80692;PMS5003;70055;39.436;-77.514;2023-11-19T00:48:49;5;5;
80692;PMS5003;70055;39.436;-77.514;2023-11-19T00:51:17;3;3;
80692;PMS5003;70055;39.436;-77.514;2023-11-19T00:53:45;3;3;
80692;PMS5003;70055;39.436;-77.514;2023-11-19T00:56:14;3;3;
80692;PMS5003;70055;39.436;-77.514;2023-11-19T00:58:42;3;3;
80692;PMS5003;70055;39.436;-77.514;2023-11-19T01:01:11;5;5;
80692;PMS5003;70055;39.436;-77.514;2023-11-19T01:03:40;3;3;
80692;PMS5003;70055;39.436;-77.514;2023-11-19T01:06:09;2;2;
80692;PMS5003;70055;39.436;-77.514;2023-11-19T01:08:37;2;2;
80692;PMS5003;70055;39.436;-77.514;2023-11-19T01:11:06;3;3;
80692;PMS5003;70055;39.436;-77.514;2023-11-19T01:13:34;5;5;
80692;PMS5003;70055;39.436;-77.514;2023-11-19T01:16:02;5;5;
80692;PMS5003;70055;39.436;-77.514;2023-11-19T01:18:31;3;3;
80692;PMS5003;70055;39.436;-77.514;2023-11-19T01:20:59;5;5;
80692;PMS5003;70055;39.436;-77.514;2023-11-19T01:23:28;6;6;
80692;PMS5003;70055;39.436;-77.514;2023-11-19T01:25:56;5;5;
80692;PMS5003;70055;39.436;-77.514;2023-11-19T01:28:24;3;3;
80692;PMS5003;70055;39.436;-77.514;2023-11-19T01:30:52;3;3;
80692;PMS5003;70055;39.436;-77.514;2023-11-19T01:33:20;5;3;
80692;PMS5003;70055;39.436;-77.514;2023-11-19T01:35:49;5;5;
80692;PMS5003;70055;39.436;-77.514;2023-11-19T01:38:17;3;3;
80692;PMS5003;70055;39.436;-77.514;2023-11-19T01:40:46;6;6;
80692;PMS5003;70055;39.436;-77.514;2023-11-19T01:43:30;5;5;
80692;PMS5003;70055;39.436;-77.514;2023-11-19T01:46:01;5;3;
80692;PMS5003;70055;39.436;-77.514;2023-11-19T01:48:31;5;5;
80692;PMS5003;70055;39.436;-77.514;2023-11-19T01:51:00;3;3;
80692;PMS5003;70055;39.436;-77.514;2023-11-19T01:53:30;5;5;
80692;PMS5003;70055;39.436;-77.514;2023-11-19T01:55:59;5;5;
80692;PMS5003;70055;39.436;-77.514;2023-11-19T01:58:28;3;3;
80692;PMS5003;70055;39.436;-77.514;2023-11-19T02:00:57;5;5;
80692;PMS5003;70055;39.436;-77.514;2023-11-19T02:03:26;3;3;
80692;PMS5003;70055;39.436;-77.514;2023-11-19T02:05:55;5;5;
80692;PMS5003;70055;39.436;-77.514;2023-11-19T02:08:23;6;5;
80692;PMS5003;70055;39.436;-77.514;2023-11-19T02:10:52;3;3;
80692;PMS5003;70055;39.436;-77.514;2023-11-19T02:13:20;3;3;
80692;PMS5003;70055;39.436;-77.514;2023-11-19T02:15:48;5;5;
80692;PMS5003;70055;39.436;-77.514;2023-11-19T02:18:18;5;5;
80692;PMS5003;70055;39.436;-77.514;2023-11-19T02:20:47;3;3;
80692;PMS5003;70055;39.436;-77.514;2023-11-19T02:23:16;3;3;
80692;PMS5003;70055;39.436;-77.514;2023-11-19T02:25:47;6;6;
80692;PMS5003;70055;39.436;-77.514;2023-11-19T02:28:24;5;5;
80692;PMS5003;70055;39.436;-77.514;2023-11-19T02:30:52;2;2;
80692;PMS5003;70055;39.436;-77.514;2023-11-19T02:33:21;5;5;
80692;PMS5003;70055;39.436;-77.514;2023-11-19T02:35:49;3;3;
80692;PMS5003;70055;39.436;-77.514;2023-11-19T02:38:18;3;3;
80692;PMS5003;70055;39.436;-77.514;2023-11-19T02:40:45;5;5;
80692;PMS5003;70055;39.436;-77.514;2023-11-19T02:43:13;5;5;
80692;PMS5003;70055;39.436;-77.514;2023-11-19T02:45:41;3;3;
80692;PMS5003;70055;39.436;-77.514;2023-11-19T02:48:09;5;5;
80692;PMS5003;70055;39.436;-77.514;2023-11-19T02:50:38;5;5;
80692;PMS5003;70055;39.436;-77.514;2023-11-19T02:53:06;3;3;
80692;PMS5003;70055;39.436;-77.514;2023-11-19T02:55:35;5;5;
80692;PMS5003;70055;39.436;-77.514;2023-11-19T02:58:03;3;3;
80692;PMS5003;70055;39.436;-77.514;2023-11-19T03:00:31;5;3;
80692;PMS5003;70055;39.436;-77.514;2023-11-19T03:02:59;6;6;
80692;PMS5003;70055;39.436;-77.514;2023-11-19T03:05:27;3;3;
80692;PMS5003;70055;39.436;-77.514;2023-11-19T03:07:56;6;6;
80692;PMS5003;70055;39.436;-77.514;2023-11-19T03:10:24;3;3;
80692;PMS5003;70055;39.436;-77.514;2023-11-19T03:12:53;6;6;
80692;PMS5003;70055;39.436;-77.514;2023-11-19T03:15:22;5;5;
80692;PMS5003;70055;39.436;-77.514;2023-11-19T03:17:50;5;5;
80692;PMS5003;70055;39.436;-77.514;2023-11-19T03:20:19;3;3;
80692;PMS5003;70055;39.436;-77.514;2023-11-19T03:22:46;5;3;
80692;PMS5003;70055;39.436;-77.514;2023-11-19T03:25:14;5;5;
80692;PMS5003;70055;39.436;-77.514;2023-11-19T03:27:41;3;3;
80692;PMS5003;70055;39.436;-77.514;2023-11-19T03:30:10;5;5;
80692;PMS5003;70055;39.436;-77.514;2023-11-19T03:32:38;6;6;
80692;PMS5003;70055;39.436;-77.514;2023-11-19T03:35:07;5;3;
80692;PMS5003;70055;39.436;-77.514;2023-11-19T03:37:34;2;2;
80692;PMS5003;70055;39.436;-77.514;2023-11-19T03:40:03;6;6;
80692;PMS5003;70055;39.436;-77.514;2023-11-19T03:42:32;6;6;
80692;PMS5003;70055;39.436;-77.514;2023-11-19T03:45:01;5;5;
80692;PMS5003;70055;39.436;-77.514;2023-11-19T03:47:30;6;6;
80692;PMS5003;70055;39.436;-77.514;2023-11-19T03:49:58;5;5;
80692;PMS5003;70055;39.436;-77.514;2023-11-19T03:52:26;5;5;
80692;PMS5003;70055;39.436;-77.514;2023-11-19T03:54:54;6;6;
80692;PMS5003;70055;39.436;-77.514;2023-11-19T03:57:23;5;5;
80692;PMS5003;70055;39.436;-77.514;2023-11-19T03:59:51;5;5;
80692;PMS5003;70055;39.436;-77.514;2023-11-19T04:02:19;6;6;
80692;PMS5003;70055;39.436;-77.514;2023-11-19T04:04:48;3;3;
80692;PMS5003;70055;39.436;-77.514;2023-11-19T04:07:16;6;6;
80692;PMS5003;70055;39.436;-77.514;2023-11-19T04:09:44;5;5;
80692;PMS5003;70055;39.436;-77.514;2023-11-19T04:12:12;6;6;
80692;PMS5003;70055;39.436;-77.514;2023-11-19T04:14:41;3;3;
80692;PMS5003;70055;39.436;-77.514;2023-11-19T04:17:09;3;3;
80692;PMS5003;70055;39.436;-77.514;2023-11-19T04:19:36;6;6;
80692;PMS5003;70055;39.436;-77.514;2023-11-19T04:22:05;5;5;
80692;PMS5003;70055;39.436;-77.514;2023-11-19T04:24:32;5;5;
80692;PMS5003;70055;39.436;-77.514;2023-11-19T04:27:00;6;6;
80692;PMS5003;70055;39.436;-77.514;2023-11-19T04:29:29;5;5;
80692;PMS5003;70055;39.436;-77.514;2023-11-19T04:31:57;5;5;
80692;PMS5003;70055;39.436;-77.514;2023-11-19T04:34:25;3;3;
80692;PMS5003;70055;39.436;-77.514;2023-11-19T04:36:53;5;5;
80692;PMS5003;70055;39.436;-77.514;2023-11-19T04:39:21;5;5;
80692;PMS5003;70055;39.436;-77.514;2023-11-19T04:41:50;3;3;
80692;PMS5003;70055;39.436;-77.514;2023-11-19T04:44:19;5;5;
80692;PMS5003;70055;39.436;-77.514;2023-11-19T04:46:48;5;5;
80692;PMS5003;70055;39.436;-77.514;2023-11-19T04:49:15;5;3;
80692;PMS5003;70055;39.436;-77.514;2023-11-19T04:51:43;5;5;
80692;PMS5003;70055;39.436;-77.514;2023-11-19T04:54:12;5;5;
80692;PMS5003;70055;39.436;-77.514;2023-11-19T04:56:44;5;5;
80692;PMS5003;70055;39.436;-77.514;2023-11-19T04:59:13;6;6;
80692;PMS5003;70055;39.436;-77.514;2023-11-19T05:01:41;5;5;
80692;PMS5003;70055;39.436;-77.514;2023-11-19T05:04:13;7;7;
80692;PMS5003;70055;39.436;-77.514;2023-11-19T05:06:41;5;5;
80692;PMS5003;70055;39.436;-77.514;2023-11-19T05:09:09;5;5;
80692;PMS5003;70055;39.436;-77.514;2023-11-19T05:11:37;6;6;
80692;PMS5003;70055;39.436;-77.514;2023-11-19T05:14:04;7;7;
80692;PMS5003;70055;39.436;-77.514;2023-11-19T05:16:33;6;6;
80692;PMS5003;70055;39.436;-77.514;2023-11-19T05:19:01;3;3;
80692;PMS5003;70055;39.436;-77.514;2023-11-19T05:21:30;6;6;
80692;PMS5003;70055;39.436;-77.514;2023-11-19T05:23:58;5;5;
80692;PMS5003;70055;39.436;-77.514;2023-11-19T05:26:26;6;6;
80692;PMS5003;70055;39.436;-77.514;2023-11-19T05:28:54;5;5;
80692;PMS5003;70055;39.436;-77.514;2023-11-19T05:31:23;5;5;
80692;PMS5003;70055;39.436;-77.514;2023-11-19T05:33:51;6;6;
80692;PMS5003;70055;39.436;-77.514;2023-11-19T05:36:19;7;6;
80692;PMS5003;70055;39.436;-77.514;2023-11-19T05:38:48;6;6;
80692;PMS5003;70055;39.436;-77.514;2023-11-19T05:41:17;3;3;
80692;PMS5003;70055;39.436;-77.514;2023-11-19T05:43:44;3;3;
80692;PMS5003;70055;39.436;-77.514;2023-11-19T05:46:12;3;3;
80692;PMS5003;70055;39.436;-77.514;2023-11-19T05:48:39;5;5;
80692;PMS5003;70055;39.436;-77.514;2023-11-19T05:51:07;3;3;
80692;PMS5003;70055;39.436;-77.514;2023-11-19T05:53:34;5;5;
80692;PMS5003;70055;39.436;-77.514;2023-11-19T05:56:02;6;6;
80692;PMS5003;70055;39.436;-77.514;2023-11-19T05:58:30;5;5;
80692;PMS5003;70055;39.436;-77.514;2023-11-19T06:00:59;5;5;
80692;PMS5003;70055;39.436;-77.514;2023-11-19T06:03:27;6;6;
80692;PMS5003;70055;39.436;-77.514;2023-11-19T06:05:55;6;5;
80692;PMS5003;70055;39.436;-77.514;2023-11-19T06:08:22;5;3;
80692;PMS5003;70055;39.436;-77.514;2023-11-19T06:10:50;6;6;
80692;PMS5003;70055;39.436;-77.514;2023-11-19T06:13:18;3;3;
80692;PMS5003;70055;39.436;-77.514;2023-11-19T06:15:46;5;5;
80692;PMS5003;70055;39.436;-77.514;2023-11-19T06:18:15;6;6;
80692;PMS5003;70055;39.436;-77.514;2023-11-19T06:20:43;6;6;
80692;PMS5003;70055;39.436;-77.514;2023-11-19T06:23:11;5;3;
80692;PMS5003;70055;39.436;-77.514;2023-11-19T06:25:38;6;5;
80692;PMS5003;70055;39.436;-77.514;2023-11-19T06:28:06;5;5;
80692;PMS5003;70055;39.436;-77.514;2023-11-19T06:30:33;5;5;
80692;PMS5003;70055;39.436;-77.514;2023-11-19T06:33:01;5;5;
80692;PMS5003;70055;39.436;-77.514;2023-11-19T06:35:30;7;7;
80692;PMS5003;70055;39.436;-77.514;2023-11-19T06:37:58;5;5;
80692;PMS5003;70055;39.436;-77.514;2023-11-19T06:40:26;5;5;
80692;PMS5003;70055;39.436;-77.514;2023-11-19T06:42:53;5;5;
80692;PMS5003;70055;39.436;-77.514;2023-11-19T06:45:22;5;5;
80692;PMS5003;70055;39.436;-77.514;2023-11-19T06:47:50;5;5;
80692;PMS5003;70055;39.436;-77.514;2023-11-19T06:50:19;5;3;
80692;PMS5003;70055;39.436;-77.514;2023-11-19T06:52:47;5;5;
80692;PMS5003;70055;39.436;-77.514;2023-11-19T06:55:15;3;3;
80692;PMS5003;70055;39.436;-77.514;2023-11-19T06:57:43;6;6;
80692;PMS5003;70055;39.436;-77.514;2023-11-19T07:00:11;5;5;
80692;PMS5003;70055;39.436;-77.514;2023-11-19T07:02:39;6;6;
80692;PMS5003;70055;39.436;-77.514;2023-11-19T07:05:08;6;5;
80692;PMS5003;70055;39.436;-77.514;2023-11-19T07:07:36;7;7;
80692;PMS5003;70055;39.436;-77.514;2023-11-19T07:10:04;7;6;
80692;PMS5003;70055;39.436;-77.514;2023-11-19T07:12:34;6;6;
80692;PMS5003;70055;39.436;-77.514;2023-11-19T07:15:02;5;5;
80692;PMS5003;70055;39.436;-77.514;2023-11-19T07:17:30;7;6;
80692;PMS5003;70055;39.436;-77.514;2023-11-19T07:19:59;3;3;
80692;PMS5003;70055;39.436;-77.514;2023-11-19T07:22:26;3;3;
80692;PMS5003;70055;39.436;-77.514;2023-11-19T07:24:54;5;5;
80692;PMS5003;70055;39.436;-77.514;2023-11-19T07:27:22;6;6;
80692;PMS5003;70055;39.436;-77.514;2023-11-19T07:29:49;3;3;
80692;PMS5003;70055;39.436;-77.514;2023-11-19T07:32:17;5;5;
80692;PMS5003;70055;39.436;-77.514;2023-11-19T07:34:45;6;5;
80692;PMS5003;70055;39.436;-77.514;2023-11-19T07:37:12;5;5;
80692;PMS5003;70055;39.436;-77.514;2023-11-19T07:39:41;5;5;
80692;PMS5003;70055;39.436;-77.514;2023-11-19T07:42:08;6;6;
80692;PMS5003;70055;39.436;-77.514;2023-11-19T07:44:37;5;5;
80692;PMS5003;70055;39.436;-77.514;2023-11-19T07:47:05;5;5;
80692;PMS5003;70055;39.436;-77.514;2023-11-19T07:49:33;6;6;
80692;PMS5003;70055;39.436;-77.514;2023-11-19T07:52:00;5;5;
80692;PMS5003;70055;39.436;-77.514;2023-11-19T07:54:28;6;6;
80692;PMS5003;70055;39.436;-77.514;2023-11-19T07:56:56;3;3;
80692;PMS5003;70055;39.436;-77.514;2023-11-19T07:59:24;5;5;
80692;PMS5003;70055;39.436;-77.514;2023-11-19T08:01:52;6;6;
80692;PMS5003;70055;39.436;-77.514;2023-11-19T08:04:20;7;7;
80692;PMS5003;70055;39.436;-77.514;2023-11-19T08:06:47;5;5;
80692;PMS5003;70055;39.436;-77.514;2023-11-19T08:09:15;5;5;
80692;PMS5003;70055;39.436;-77.514;2023-11-19T08:11:42;4;4;
80692;PMS5003;70055;39.436;-77.514;2023-11-19T08:14:10;5;5;
80692;PMS5003;70055;39.436;-77.514;2023-11-19T08:16:39;5;5;
80692;PMS5003;70055;39.436;-77.514;2023-11-19T08:19:07;6;6;
80692;PMS5003;70055;39.436;-77.514;2023-11-19T08:21:35;6;5;
80692;PMS5003;70055;39.436;-77.514;2023-11-19T08:24:03;5;5;
80692;PMS5003;70055;39.436;-77.514;2023-11-19T08:26:31;3;3;
80692;PMS5003;70055;39.436;-77.514;2023-11-19T08:28:58;8;6;
80692;PMS5003;70055;39.436;-77.514;2023-11-19T08:31:26;5;5;
80692;PMS5003;70055;39.436;-77.514;2023-11-19T08:33:54;5;5;
80692;PMS5003;70055;39.436;-77.514;2023-11-19T08:36:23;5;5;
80692;PMS5003;70055;39.436;-77.514;2023-11-19T08:38:51;5;5;
80692;PMS5003;70055;39.436;-77.514;2023-11-19T08:41:20;5;5;
80692;PMS5003;70055;39.436;-77.514;2023-11-19T08:43:49;7;6;
80692;PMS5003;70055;39.436;-77.514;2023-11-19T08:46:17;4;4;
80692;PMS5003;70055;39.436;-77.514;2023-11-19T08:48:45;5;5;
80692;PMS5003;70055;39.436;-77.514;2023-11-19T08:51:13;6;6;
80692;PMS5003;70055;39.436;-77.514;2023-11-19T08:53:41;6;6;
80692;PMS5003;70055;39.436;-77.514;2023-11-19T08:56:09;5;5;
80692;PMS5003;70055;39.436;-77.514;2023-11-19T08:58:37;6;5;
80692;PMS5003;70055;39.436;-77.514;2023-11-19T09:01:05;5;5;
80692;PMS5003;70055;39.436;-77.514;2023-11-19T09:03:33;5;5;
80692;PMS5003;70055;39.436;-77.514;2023-11-19T09:06:00;4;4;
80692;PMS5003;70055;39.436;-77.514;2023-11-19T09:08:28;5;4;
80692;PMS5003;70055;39.436;-77.514;2023-11-19T09:10:56;5;5;
80692;PMS5003;70055;39.436;-77.514;2023-11-19T09:13:23;5;5;
80692;PMS5003;70055;39.436;-77.514;2023-11-19T09:15:51;4;4;
80692;PMS5003;70055;39.436;-77.514;2023-11-19T09:18:19;5;5;
80692;PMS5003;70055;39.436;-77.514;2023-11-19T09:20:46;6;6;
80692;PMS5003;70055;39.436;-77.514;2023-11-19T09:23:14;6;6;
80692;PMS5003;70055;39.436;-77.514;2023-11-19T09:25:41;6;6;
80692;PMS5003;70055;39.436;-77.514;2023-11-19T09:28:09;5;5;
80692;PMS5003;70055;39.436;-77.514;2023-11-19T09:30:37;6;6;
80692;PMS5003;70055;39.436;-77.514;2023-11-19T09:33:05;5;5;
80692;PMS5003;70055;39.436;-77.514;2023-11-19T09:35:34;5;5;
80692;PMS5003;70055;39.436;-77.514;2023-11-19T09:38:02;6;5;
80692;PMS5003;70055;39.436;-77.514;2023-11-19T09:40:29;5;5;
80692;PMS5003;70055;39.436;-77.514;2023-11-19T09:42:58;6;6;
80692;PMS5003;70055;39.436;-77.514;2023-11-19T09:45:27;5;5;
80692;PMS5003;70055;39.436;-77.514;2023-11-19T09:47:56;5;5;
80692;PMS5003;70055;39.436;-77.514;2023-11-19T09:50:26;5;5;
80692;PMS5003;70055;39.436;-77.514;2023-11-19T09:52:55;5;5;
80692;PMS5003;70055;39.436;-77.514;2023-11-19T09:55:22;6;6;
80692;PMS5003;70055;39.436;-77.514;2023-11-19T09:57:51;9;6;
80692;PMS5003;70055;39.436;-77.514;2023-11-19T10:00:21;5;5;
80692;PMS5003;70055;39.436;-77.514;2023-11-19T10:02:49;5;5;
80692;PMS5003;70055;39.436;-77.514;2023-11-19T10:05:17;8;6;
80692;PMS5003;70055;39.436;-77.514;2023-11-19T10:07:48;5;5;
80692;PMS5003;70055;39.436;-77.514;2023-11-19T10:10:17;5;5;
80692;PMS5003;70055;39.436;-77.514;2023-11-19T10:12:46;4;4;
80692;PMS5003;70055;39.436;-77.514;2023-11-19T10:15:15;4;4;
80692;PMS5003;70055;39.436;-77.514;2023-11-19T10:17:47;5;5;
80692;PMS5003;70055;39.436;-77.514;2023-11-19T10:20:15;5;4;
80692;PMS5003;70055;39.436;-77.514;2023-11-19T10:22:43;3;3;
80692;PMS5003;70055;39.436;-77.514;2023-11-19T10:25:28;5;5;
80692;PMS5003;70055;39.436;-77.514;2023-11-19T10:27:56;5;5;
80692;PMS5003;70055;39.436;-77.514;2023-11-19T10:30:24;6;5;
80692;PMS5003;70055;39.436;-77.514;2023-11-19T10:33:10;7;6;
80692;PMS5003;70055;39.436;-77.514;2023-11-19T10:35:50;6;5;
80692;PMS5003;70055;39.436;-77.514;2023-11-19T10:38:19;5;5;
80692;PMS5003;70055;39.436;-77.514;2023-11-19T10:40:47;8;8;
80692;PMS5003;70055;39.436;-77.514;2023-11-19T10:43:16;6;6;
80692;PMS5003;70055;39.436;-77.514;2023-11-19T10:45:45;6;6;
80692;PMS5003;70055;39.436;-77.514;2023-11-19T10:48:12;5;5;
80692;PMS5003;70055;39.436;-77.514;2023-11-19T10:50:40;4;4;
80692;PMS5003;70055;39.436;-77.514;2023-11-19T10:53:10;6;6;
80692;PMS5003;70055;39.436;-77.514;2023-11-19T10:55:39;4;4;
80692;PMS5003;70055;39.436;-77.514;2023-11-19T10:58:08;6;6;
80692;PMS5003;70055;39.436;-77.514;2023-11-19T11:00:37;6;6;
80692;PMS5003;70055;39.436;-77.514;2023-11-19T11:03:10;8;8;
80692;PMS5003;70055;39.436;-77.514;2023-11-19T11:05:42;5;5;
80692;PMS5003;70055;39.436;-77.514;2023-11-19T11:08:13;6;6;
80692;PMS5003;70055;39.436;-77.514;2023-11-19T11:10:43;5;5;
80692;PMS5003;70055;39.436;-77.514;2023-11-19T11:13:14;6;6;
80692;PMS5003;70055;39.436;-77.514;2023-11-19T11:15:42;6;6;
80692;PMS5003;70055;39.436;-77.514;2023-11-19T11:18:11;5;5;
80692;PMS5003;70055;39.436;-77.514;2023-11-19T11:20:40;5;5;
80692;PMS5003;70055;39.436;-77.514;2023-11-19T11:23:19;5;5;
80692;PMS5003;70055;39.436;-77.514;2023-11-19T11:26:09;6;6;
80692;PMS5003;70055;39.436;-77.514;2023-11-19T11:28:54;8;8;
80692;PMS5003;70055;39.436;-77.514;2023-11-19T11:31:31;8;6;
80692;PMS5003;70055;39.436;-77.514;2023-11-19T11:34:15;8;6;
80692;PMS5003;70055;39.436;-77.514;2023-11-19T11:37:02;8;8;
80692;PMS5003;70055;39.436;-77.514;2023-11-19T11:39:38;10;9;
80692;PMS5003;70055;39.436;-77.514;2023-11-19T11:42:39;10;9;
80692;PMS5003;70055;39.436;-77.514;2023-11-19T11:45:07;8;8;
80692;PMS5003;70055;39.436;-77.514;2023-11-19T11:48:23;9;9;
80692;PMS5003;70055;39.436;-77.514;2023-11-19T11:50:56;6;6;
80692;PMS5003;70055;39.436;-77.514;2023-11-19T11:53:25;9;9;
80692;PMS5003;70055;39.436;-77.514;2023-11-19T11:55:54;9;9;
80692;PMS5003;70055;39.436;-77.514;2023-11-19T11:58:25;9;9;
80692;PMS5003;70055;39.436;-77.514;2023-11-19T12:00:56;6;6;
80692;PMS5003;70055;39.436;-77.514;2023-11-19T12:03:27;8;6;
80692;PMS5003;70055;39.436;-77.514;2023-11-19T12:05:56;9;8;
80692;PMS5003;70055;39.436;-77.514;2023-11-19T12:08:25;5;5;
80692;PMS5003;70055;39.436;-77.514;2023-11-19T12:10:55;8;8;
80692;PMS5003;70055;39.436;-77.514;2023-11-19T12:13:24;8;8;
80692;PMS5003;70055;39.436;-77.514;2023-11-19T12:16:10;8;8;
80692;PMS5003;70055;39.436;-77.514;2023-11-19T12:18:39;8;8;
80692;PMS5003;70055;39.436;-77.514;2023-11-19T12:21:07;8;6;
80692;PMS5003;70055;39.436;-77.514;2023-11-19T12:23:44;6;6;
80692;PMS5003;70055;39.436;-77.514;2023-11-19T12:26:21;6;6;
80692;PMS5003;70055;39.436;-77.514;2023-11-19T12:28:58;8;8;
80692;PMS5003;70055;39.436;-77.514;2023-11-19T12:31:27;9;9;
80692;PMS5003;70055;39.436;-77.514;2023-11-19T12:33:55;6;6;
80692;PMS5003;70055;39.436;-77.514;2023-11-19T12:36:23;8;6;
80692;PMS5003;70055;39.436;-77.514;2023-11-19T12:38:51;5;5;
80692;PMS5003;70055;39.436;-77.514;2023-11-19T12:41:19;6;6;
80692;PMS5003;70055;39.436;-77.514;2023-11-19T12:43:47;6;6;
80692;PMS5003;70055;39.436;-77.514;2023-11-19T12:46:17;6;6;
80692;PMS5003;70055;39.436;-77.514;2023-11-19T12:48:45;6;6;
80692;PMS5003;70055;39.436;-77.514;2023-11-19T12:51:13;6;6;
80692;PMS5003;70055;39.436;-77.514;2023-11-19T12:53:51;9;9;
80692;PMS5003;70055;39.436;-77.514;2023-11-19T12:56:19;7;7;
80692;PMS5003;70055;39.436;-77.514;2023-11-19T12:58:48;6;6;
80692;PMS5003;70055;39.436;-77.514;2023-11-19T13:01:16;5;5;
80692;PMS5003;70055;39.436;-77.514;2023-11-19T13:03:45;5;5;
80692;PMS5003;70055;39.436;-77.514;2023-11-19T13:06:14;6;6;
80692;PMS5003;70055;39.436;-77.514;2023-11-19T13:08:43;7;6;
80692;PMS5003;70055;39.436;-77.514;2023-11-19T13:11:13;6;6;
80692;PMS5003;70055;39.436;-77.514;2023-11-19T13:13:56;9;7;
80692;PMS5003;70055;39.436;-77.514;2023-11-19T13:16:26;7;7;
80692;PMS5003;70055;39.436;-77.514;2023-11-19T13:18:55;6;6;
80692;PMS5003;70055;39.436;-77.514;2023-11-19T13:21:23;6;5;
80692;PMS5003;70055;39.436;-77.514;2023-11-19T13:23:52;7;7;
80692;PMS5003;70055;39.436;-77.514;2023-11-19T13:26:20;9;9;
80692;PMS5003;70055;39.436;-77.514;2023-11-19T13:28:48;6;6;
80692;PMS5003;70055;39.436;-77.514;2023-11-19T13:31:16;5;5;
80692;PMS5003;70055;39.436;-77.514;2023-11-19T13:33:44;6;6;
80692;PMS5003;70055;39.436;-77.514;2023-11-19T13:36:12;6;6;
80692;PMS5003;70055;39.436;-77.514;2023-11-19T13:38:41;6;6;
80692;PMS5003;70055;39.436;-77.514;2023-11-19T13:41:08;7;7;
80692;PMS5003;70055;39.436;-77.514;2023-11-19T13:43:36;7;7;
80692;PMS5003;70055;39.436;-77.514;2023-11-19T13:46:05;7;6;
80692;PMS5003;70055;39.436;-77.514;2023-11-19T13:48:33;7;7;
80692;PMS5003;70055;39.436;-77.514;2023-11-19T13:51:01;6;6;
80692;PMS5003;70055;39.436;-77.514;2023-11-19T13:53:29;7;7;
80692;PMS5003;70055;39.436;-77.514;2023-11-19T13:55:58;8;8;
80692;PMS5003;70055;39.436;-77.514;2023-11-19T13:58:27;8;8;
80692;PMS5003;70055;39.436;-77.514;2023-11-19T14:00:55;7;7;
80692;PMS5003;70055;39.436;-77.514;2023-11-19T14:03:23;6;6;
80692;PMS5003;70055;39.436;-77.514;2023-11-19T14:05:51;6;6;
80692;PMS5003;70055;39.436;-77.514;2023-11-19T14:08:19;8;8;
80692;PMS5003;70055;39.436;-77.514;2023-11-19T14:10:48;6;6;
80692;PMS5003;70055;39.436;-77.514;2023-11-19T14:13:16;8;8;
80692;PMS5003;70055;39.436;-77.514;2023-11-19T14:15:44;8;8;
80692;PMS5003;70055;39.436;-77.514;2023-11-19T14:18:12;5;5;
80692;PMS5003;70055;39.436;-77.514;2023-11-19T14:20:40;8;8;
80692;PMS5003;70055;39.436;-77.514;2023-11-19T14:23:08;8;8;
80692;PMS5003;70055;39.436;-77.514;2023-11-19T14:25:37;6;6;
80692;PMS5003;70055;39.436;-77.514;2023-11-19T14:28:05;8;8;
80692;PMS5003;70055;39.436;-77.514;2023-11-19T14:30:33;6;6;
80692;PMS5003;70055;39.436;-77.514;2023-11-19T14:33:01;9;8;
80692;PMS5003;70055;39.436;-77.514;2023-11-19T14:35:29;10;10;
80692;PMS5003;70055;39.436;-77.514;2023-11-19T14:37:57;9;9;
80692;PMS5003;70055;39.436;-77.514;2023-11-19T14:40:25;8;8;
80692;PMS5003;70055;39.436;-77.514;2023-11-19T14:42:53;9;9;
80692;PMS5003;70055;39.436;-77.514;2023-11-19T14:45:21;9;9;
80692;PMS5003;70055;39.436;-77.514;2023-11-19T14:47:49;10;9;
80692;PMS5003;70055;39.436;-77.514;2023-11-19T14:50:18;9;9;
80692;PMS5003;70055;39.436;-77.514;2023-11-19T14:52:46;9;7;
80692;PMS5003;70055;39.436;-77.514;2023-11-19T14:55:14;9;9;
80692;PMS5003;70055;39.436;-77.514;2023-11-19T14:57:42;10;10;
80692;PMS5003;70055;39.436;-77.514;2023-11-19T15:00:11;9;7;
80692;PMS5003;70055;39.436;-77.514;2023-11-19T15:02:40;7;7;
80692;PMS5003;70055;39.436;-77.514;2023-11-19T15:05:08;8;8;
80692;PMS5003;70055;39.436;-77.514;2023-11-19T15:07:37;8;8;
80692;PMS5003;70055;39.436;-77.514;2023-11-19T15:10:07;9;8;
80692;PMS5003;70055;39.436;-77.514;2023-11-19T15:12:36;7;7;
80692;PMS5003;70055;39.436;-77.514;2023-11-19T15:15:05;9;9;
80692;PMS5003;70055;39.436;-77.514;2023-11-19T15:17:35;8;8;
80692;PMS5003;70055;39.436;-77.514;2023-11-19T15:20:04;8;8;
80692;PMS5003;70055;39.436;-77.514;2023-11-19T15:22:37;7;7;
80692;PMS5003;70055;39.436;-77.514;2023-11-19T15:25:05;7;7;
80692;PMS5003;70055;39.436;-77.514;2023-11-19T15:27:34;8;8;
80692;PMS5003;70055;39.436;-77.514;2023-11-19T15:30:02;10;10;
80692;PMS5003;70055;39.436;-77.514;2023-11-19T15:32:31;7;7;
80692;PMS5003;70055;39.436;-77.514;2023-11-19T15:34:59;9;9;
80692;PMS5003;70055;39.436;-77.514;2023-11-19T15:37:28;8;8;
80692;PMS5003;70055;39.436;-77.514;2023-11-19T15:39:56;11;9;
80692;PMS5003;70055;39.436;-77.514;2023-11-19T15:42:24;9;9;
80692;PMS5003;70055;39.436;-77.514;2023-11-19T15:44:51;8;8;
80692;PMS5003;70055;39.436;-77.514;2023-11-19T15:47:20;11;11;
80692;PMS5003;70055;39.436;-77.514;2023-11-19T15:49:48;9;9;
80692;PMS5003;70055;39.436;-77.514;2023-11-19T15:52:16;10;10;
80692;PMS5003;70055;39.436;-77.514;2023-11-19T15:54:44;9;9;
80692;PMS5003;70055;39.436;-77.514;2023-11-19T15:57:12;9;9;
80692;PMS5003;70055;39.436;-77.514;2023-11-19T15:59:40;10;9;
80692;PMS5003;70055;39.436;-77.514;2023-11-19T16:02:09;9;9;
80692;PMS5003;70055;39.436;-77.514;2023-11-19T16:04:36;10;9;
80692;PMS5003;70055;39.436;-77.514;2023-11-19T16:07:04;8;8;
80692;PMS5003;70055;39.436;-77.514;2023-11-19T16:09:32;9;8;
80692;PMS5003;70055;39.436;-77.514;2023-11-19T16:12:00;8;8;
80692;PMS5003;70055;39.436;-77.514;2023-11-19T16:14:28;8;8;
80692;PMS5003;70055;39.436;-77.514;2023-11-19T16:16:57;8;8;
80692;PMS5003;70055;39.436;-77.514;2023-11-19T16:19:25;8;8;
80692;PMS5003;70055;39.436;-77.514;2023-11-19T16:21:54;9;9;
80692;PMS5003;70055;39.436;-77.514;2023-11-19T16:24:22;8;8;
80692;PMS5003;70055;39.436;-77.514;2023-11-19T16:26:50;9;9;
80692;PMS5003;70055;39.436;-77.514;2023-11-19T16:29:18;8;8;